createdAt,value
2023-03-05T00:01:06.530Z,101357.60
2023-03-05T00:02:38.407Z,101352.60
2023-03-05T00:04:14.561Z,101348.00
2023-03-05T00:05:46.292Z,101345.60
2023-03-05T00:07:18.084Z,101341.40
2023-03-05T00:08:50.169Z,101336.40
2023-03-05T00:10:22.045Z,101337.20
2023-03-05T00:11:53.857Z,101336.00
2023-03-05T00:13:26.738Z,101336.80
2023-03-05T00:14:58.502Z,101340.40
2023-03-05T00:16:31.475Z,101340.00
2023-03-05T00:18:03.521Z,101341.40
2023-03-05T00:19:35.474Z,101335.80
2023-03-05T00:21:22.571Z,101333.60
2023-03-05T00:22:54.651Z,101338.80
2023-03-05T00:24:26.645Z,101336.40
2023-03-05T00:26:02.562Z,101334.60
2023-03-05T00:27:34.285Z,101331.80
2023-03-05T00:29:09.344Z,101332.60
2023-03-05T00:30:42.056Z,101330.00
2023-03-05T00:32:13.968Z,101330.20
2023-03-05T00:33:46.254Z,101328.80
2023-03-05T00:35:18.121Z,101326.40
2023-03-05T00:36:52.584Z,101329.80
2023-03-05T00:38:24.778Z,101326.00
2023-03-05T00:39:57.592Z,101321.00
2023-03-05T00:41:29.586Z,101322.40
2023-03-05T00:43:01.447Z,101322.80
2023-03-05T00:44:33.536Z,101321.40
2023-03-05T00:46:05.486Z,101320.40
2023-03-05T00:47:38.746Z,101326.80
2023-03-05T00:49:10.590Z,101320.20
2023-03-05T00:50:42.509Z,101322.40
2023-03-05T00:52:14.247Z,101323.20
2023-03-05T00:53:46.684Z,101321.80
2023-03-05T00:55:18.867Z,101318.60
2023-03-05T00:56:52.689Z,101313.60
2023-03-05T00:58:24.571Z,101313.40
2023-03-05T00:59:56.344Z,101314.80
2023-03-05T01:01:29.291Z,101311.60
2023-03-05T01:03:01.244Z,101308.80
2023-03-05T01:04:33.212Z,101304.60
2023-03-05T01:06:09.319Z,101300.00
2023-03-05T01:07:41.720Z,101297.40
2023-03-05T01:09:13.708Z,101297.20
2023-03-05T01:10:45.468Z,101297.60
2023-03-05T01:12:17.228Z,101292.40
2023-03-05T01:13:49.207Z,101292.80
2023-03-05T01:15:22.429Z,101293.60
2023-03-05T01:16:54.806Z,101291.40
2023-03-05T01:18:26.580Z,101293.80
2023-03-05T01:19:58.322Z,101286.00
2023-03-05T01:21:30.551Z,101290.40
2023-03-05T01:23:03.122Z,101290.40
2023-03-05T01:24:34.774Z,101293.40
2023-03-05T01:26:08.612Z,101287.40
2023-03-05T01:27:40.661Z,101285.40
2023-03-05T01:29:12.371Z,101285.20
2023-03-05T01:30:45.576Z,101286.60
2023-03-05T01:32:17.400Z,101282.40
2023-03-05T01:33:53.255Z,101291.00
2023-03-05T01:35:26.620Z,101283.60
2023-03-05T01:36:58.471Z,101278.60
2023-03-05T01:38:30.219Z,101281.80
2023-03-05T01:40:02.219Z,101275.00
2023-03-05T01:41:34.370Z,101274.00
2023-03-05T01:43:13.812Z,101274.40
2023-03-05T01:45:12.455Z,101274.00
2023-03-05T01:46:44.754Z,101274.00
2023-03-05T01:48:16.494Z,101270.80
2023-03-05T01:49:48.336Z,101266.80
2023-03-05T01:51:27.037Z,101268.80
2023-03-05T01:53:04.519Z,101265.40
2023-03-05T01:54:46.550Z,101264.20
2023-03-05T01:56:18.527Z,101261.80
2023-03-05T01:58:07.043Z,101259.80
2023-03-05T01:59:42.451Z,101259.20
2023-03-05T02:01:14.408Z,101257.60
2023-03-05T02:02:51.317Z,101254.60
2023-03-05T02:04:31.094Z,101249.80
2023-03-05T02:06:03.539Z,101246.00
2023-03-05T02:07:37.281Z,101249.20
2023-03-05T02:09:09.669Z,101245.20
2023-03-05T02:10:49.935Z,101243.80
2023-03-05T02:12:22.681Z,101239.80
2023-03-05T02:13:54.507Z,101238.80
2023-03-05T02:15:26.840Z,101237.80
2023-03-05T02:16:58.703Z,101231.40
2023-03-05T02:18:30.763Z,101231.80
2023-03-05T02:20:17.912Z,101228.40
2023-03-05T02:21:50.550Z,101225.00
2023-03-05T02:23:29.636Z,101222.40
2023-03-05T02:25:01.455Z,101225.40
2023-03-05T02:26:33.452Z,101222.80
2023-03-05T02:28:26.229Z,101217.60
2023-03-05T02:29:57.916Z,101216.00
2023-03-05T02:31:31.130Z,101215.60
2023-03-05T02:33:03.422Z,101214.80
2023-03-05T02:34:37.335Z,101219.00
2023-03-05T02:36:10.573Z,101211.80
2023-03-05T02:37:43.115Z,101209.40
2023-03-05T02:39:14.791Z,101205.00
2023-03-05T02:40:46.737Z,101208.00
2023-03-05T02:42:18.816Z,101203.40
2023-03-05T02:43:51.407Z,101201.60
2023-03-05T02:45:23.183Z,101201.40
2023-03-05T02:46:55.087Z,101201.40
2023-03-05T02:48:26.946Z,101202.00
2023-03-05T02:49:59.252Z,101199.40
2023-03-05T02:51:31.460Z,101196.00
2023-03-05T02:53:03.821Z,101192.80
2023-03-05T02:54:35.505Z,101194.80
2023-03-05T02:56:08.926Z,101196.00
2023-03-05T02:57:40.868Z,101195.40
2023-03-05T02:59:12.536Z,101188.00
2023-03-05T03:00:46.758Z,101189.00
2023-03-05T03:02:18.978Z,101185.60
2023-03-05T03:03:50.703Z,101182.20
2023-03-05T03:05:22.966Z,101180.60
2023-03-05T03:06:54.786Z,101183.00
2023-03-05T03:08:26.537Z,101179.20
2023-03-05T03:09:58.239Z,101182.00
2023-03-05T03:11:29.993Z,101173.40
2023-03-05T03:13:01.844Z,101175.80
2023-03-05T03:14:39.148Z,101173.00
2023-03-05T03:16:14.573Z,101167.20
2023-03-05T03:17:46.492Z,101169.80
2023-03-05T03:19:18.218Z,101167.40
2023-03-05T03:20:49.972Z,101167.00
2023-03-05T03:22:21.763Z,101164.60
2023-03-05T03:23:53.771Z,101164.40
2023-03-05T03:25:25.523Z,101161.00
2023-03-05T03:26:57.412Z,101157.60
2023-03-05T03:28:29.156Z,101156.60
2023-03-05T03:30:04.608Z,101154.80
2023-03-05T03:31:36.312Z,101155.20
2023-03-05T03:33:08.140Z,101151.40
2023-03-05T03:34:39.976Z,101149.20
2023-03-05T03:36:12.386Z,101138.80
2023-03-05T03:37:44.147Z,101134.80
2023-03-05T03:39:17.122Z,101131.80
2023-03-05T03:40:48.861Z,101135.00
2023-03-05T03:42:22.773Z,101134.80
2023-03-05T03:43:54.422Z,101134.80
2023-03-05T03:45:26.103Z,101130.80
2023-03-05T03:46:57.842Z,101126.40
2023-03-05T03:48:29.462Z,101131.60
2023-03-05T03:50:01.339Z,101125.00
2023-03-05T03:51:34.494Z,101123.80
2023-03-05T03:53:06.635Z,101121.60
2023-03-05T03:54:38.358Z,101119.40
2023-03-05T03:56:10.177Z,101119.80
2023-03-05T03:57:43.462Z,101117.40
2023-03-05T03:59:15.272Z,101113.40
2023-03-05T04:00:47.025Z,101113.60
2023-03-05T04:02:18.838Z,101116.20
2023-03-05T04:03:50.770Z,101116.80
2023-03-05T04:05:22.555Z,101107.60
2023-03-05T04:06:54.273Z,101109.20
2023-03-05T04:08:26.132Z,101109.20
2023-03-05T04:09:57.836Z,101098.40
2023-03-05T04:11:29.513Z,101101.00
2023-03-05T04:13:01.261Z,101088.80
2023-03-05T04:14:33.990Z,101087.80
2023-03-05T04:16:06.534Z,101090.40
2023-03-05T04:17:38.287Z,101088.80
2023-03-05T04:19:10.013Z,101087.40
2023-03-05T04:20:41.680Z,101086.60
2023-03-05T04:22:16.693Z,101081.40
2023-03-05T04:23:48.413Z,101079.60
2023-03-05T04:25:20.116Z,101084.40
2023-03-05T04:26:55.780Z,101080.00
2023-03-05T04:28:27.964Z,101080.80
2023-03-05T04:30:00.738Z,101076.40
2023-03-05T04:31:32.683Z,101070.20
2023-03-05T04:33:04.791Z,101073.20
2023-03-05T04:34:38.210Z,101069.00
2023-03-05T04:36:09.959Z,101076.40
2023-03-05T04:37:42.083Z,101067.00
2023-03-05T04:39:13.807Z,101074.00
2023-03-05T04:40:46.842Z,101073.00
2023-03-05T04:42:20.154Z,101074.60
2023-03-05T04:43:51.830Z,101072.60
2023-03-05T04:45:23.558Z,101070.80
2023-03-05T04:46:55.234Z,101075.00
2023-03-05T04:48:27.033Z,101074.40
2023-03-05T04:49:58.967Z,101070.00
2023-03-05T04:51:30.632Z,101073.40
2023-03-05T04:53:03.068Z,101071.60
2023-03-05T04:54:34.797Z,101068.40
2023-03-05T04:56:07.777Z,101071.20
2023-03-05T04:57:40.063Z,101065.00
2023-03-05T04:59:11.746Z,101062.40
2023-03-05T05:00:43.366Z,101060.80
2023-03-05T05:02:15.115Z,101056.40
2023-03-05T05:03:46.785Z,101062.60
2023-03-05T05:05:23.453Z,101056.60
2023-03-05T05:06:56.782Z,101059.40
2023-03-05T05:08:29.277Z,101061.80
2023-03-05T05:10:01.081Z,101054.40
2023-03-05T05:11:32.751Z,101051.80
2023-03-05T05:13:04.457Z,101049.80
2023-03-05T05:14:36.890Z,101048.40
2023-03-05T05:16:09.637Z,101049.80
2023-03-05T05:17:41.358Z,101047.60
2023-03-05T05:19:13.309Z,101053.00
2023-03-05T05:20:45.226Z,101051.40
2023-03-05T05:22:17.835Z,101058.00
2023-03-05T05:23:49.541Z,101057.00
2023-03-05T05:25:21.214Z,101060.00
2023-03-05T05:26:55.927Z,101055.40
2023-03-05T05:28:28.310Z,101053.60
2023-03-05T05:30:00.601Z,101050.40
2023-03-05T05:31:32.334Z,101050.00
2023-03-05T05:33:04.330Z,101045.20
2023-03-05T05:34:36.074Z,101040.00
2023-03-05T05:36:12.415Z,101040.40
2023-03-05T05:37:44.269Z,101042.80
2023-03-05T05:39:15.993Z,101045.20
2023-03-05T05:40:47.730Z,101038.00
2023-03-05T05:42:22.676Z,101039.00
2023-03-05T05:43:54.419Z,101038.00
2023-03-05T05:45:26.248Z,101037.40
2023-03-05T05:46:57.957Z,101035.40
2023-03-05T05:48:32.369Z,101037.20
2023-03-05T05:50:05.638Z,101038.00
2023-03-05T05:51:37.523Z,101033.20
2023-03-05T05:53:09.235Z,101037.00
2023-03-05T05:54:41.016Z,101031.20
2023-03-05T05:56:14.301Z,101029.60
2023-03-05T05:57:46.412Z,101033.00
2023-03-05T05:59:18.278Z,101030.80
2023-03-05T06:00:50.010Z,101031.00
2023-03-05T06:02:21.904Z,101031.60
2023-03-05T06:03:54.813Z,101031.40
2023-03-05T06:05:26.517Z,101028.00
2023-03-05T06:06:59.913Z,101028.20
2023-03-05T06:08:31.646Z,101025.60
2023-03-05T06:10:04.365Z,101022.20
2023-03-05T06:11:38.287Z,101018.60
2023-03-05T06:13:10.430Z,101021.20
2023-03-05T06:14:42.217Z,101026.00
2023-03-05T06:16:18.297Z,101029.20
2023-03-05T06:17:50.162Z,101026.80
2023-03-05T06:19:21.843Z,101025.00
2023-03-05T06:21:04.488Z,101025.40
2023-03-05T06:22:38.328Z,101028.20
2023-03-05T06:24:11.029Z,101022.80
2023-03-05T06:25:42.747Z,101027.00
2023-03-05T06:27:14.470Z,101026.60
2023-03-05T06:28:46.486Z,101026.80
2023-03-05T06:30:18.409Z,101024.80
2023-03-05T06:31:50.171Z,101017.40
2023-03-05T06:33:21.918Z,101021.00
2023-03-05T06:34:53.739Z,101019.00
2023-03-05T06:36:26.114Z,101018.00
2023-03-05T06:37:58.200Z,101024.20
2023-03-05T06:39:31.534Z,101019.00
2023-03-05T06:41:09.270Z,101013.20
2023-03-05T06:42:40.956Z,101021.20
2023-03-05T06:44:12.766Z,101017.80
2023-03-05T06:45:47.431Z,101021.80
2023-03-05T06:47:19.144Z,101018.40
2023-03-05T06:48:52.424Z,101013.00
2023-03-05T06:50:24.226Z,101019.00
2023-03-05T06:51:55.915Z,101017.80
2023-03-05T06:53:28.316Z,101017.40
2023-03-05T06:55:00.030Z,101017.80
2023-03-05T06:56:32.618Z,101016.60
2023-03-05T06:58:04.304Z,101014.00
2023-03-05T06:59:36.173Z,101018.20
2023-03-05T07:01:08.172Z,101018.00
2023-03-05T07:02:40.528Z,101019.80
2023-03-05T07:04:13.976Z,101016.40
2023-03-05T07:05:45.789Z,101016.40
2023-03-05T07:07:18.132Z,101011.40
2023-03-05T07:08:50.181Z,101007.80
2023-03-05T07:10:22.616Z,101012.40
2023-03-05T07:11:54.340Z,101015.20
2023-03-05T07:13:26.567Z,101007.60
2023-03-05T07:14:58.353Z,101004.40
2023-03-05T07:16:33.508Z,101003.20
2023-03-05T07:18:06.112Z,101010.60
2023-03-05T07:19:39.109Z,100999.40
2023-03-05T07:21:16.035Z,101002.00
2023-03-05T07:22:47.714Z,100999.80
2023-03-05T07:24:19.416Z,101000.40
2023-03-05T07:25:51.149Z,101003.00
2023-03-05T07:27:25.461Z,101002.80
2023-03-05T07:28:57.284Z,101000.80
2023-03-05T07:30:28.969Z,100997.20
2023-03-05T07:32:00.785Z,100999.80
2023-03-05T07:33:35.341Z,101004.00
2023-03-05T07:35:08.098Z,100995.20
2023-03-05T07:36:40.533Z,100994.00
2023-03-05T07:38:12.212Z,100994.80
2023-03-05T07:39:46.328Z,100997.20
2023-03-05T07:41:21.112Z,100997.00
2023-03-05T07:42:54.156Z,100997.60
2023-03-05T07:44:29.080Z,100994.00
2023-03-05T07:46:05.580Z,100993.40
2023-03-05T07:47:37.472Z,100991.60
2023-03-05T07:49:09.409Z,100988.40
2023-03-05T07:50:41.596Z,100984.20
2023-03-05T07:52:13.328Z,100985.00
2023-03-05T07:53:47.230Z,100982.00
2023-03-05T07:55:19.046Z,100986.80
2023-03-05T07:56:51.650Z,100981.80
2023-03-05T07:58:23.548Z,100982.40
2023-03-05T07:59:55.305Z,100980.80
2023-03-05T08:01:28.490Z,100979.20
2023-03-05T08:03:00.257Z,100979.80
2023-03-05T08:04:32.080Z,100972.80
2023-03-05T08:06:06.733Z,100972.40
2023-03-05T08:07:38.477Z,100976.00
2023-03-05T08:09:10.237Z,100970.80
2023-03-05T08:10:42.397Z,100978.40
2023-03-05T08:12:14.198Z,100976.00
2023-03-05T08:13:47.482Z,100972.40
2023-03-05T08:15:19.248Z,100972.80
2023-03-05T08:16:52.291Z,100966.40
2023-03-05T08:18:24.140Z,100966.40
2023-03-05T08:19:58.336Z,100965.60
2023-03-05T08:21:36.064Z,100965.20
2023-03-05T08:23:07.902Z,100965.60
2023-03-05T08:24:39.609Z,100967.40
2023-03-05T08:26:15.546Z,100960.00
2023-03-05T08:27:48.479Z,100960.40
2023-03-05T08:29:20.250Z,100957.60
2023-03-05T08:30:52.240Z,100955.40
2023-03-05T08:32:24.271Z,100955.60
2023-03-05T08:33:59.044Z,100953.20
2023-03-05T08:35:30.782Z,100958.00
2023-03-05T08:37:02.484Z,100951.80
2023-03-05T08:38:34.514Z,100952.80
2023-03-05T08:40:07.241Z,100953.20
2023-03-05T08:41:39.177Z,100955.20
2023-03-05T08:43:10.871Z,100959.20
2023-03-05T08:44:42.568Z,100953.60
2023-03-05T08:46:16.228Z,100952.40
2023-03-05T08:47:47.974Z,100952.00
2023-03-05T08:49:19.693Z,100953.20
2023-03-05T08:50:51.464Z,100947.20
2023-03-05T08:52:23.618Z,100949.00
2023-03-05T08:53:58.610Z,100944.80
2023-03-05T08:55:30.354Z,100941.40
2023-03-05T08:57:02.307Z,100945.40
2023-03-05T08:58:34.256Z,100945.00
2023-03-05T09:00:07.487Z,100941.40
2023-03-05T09:01:39.218Z,100937.40
2023-03-05T09:03:11.070Z,100937.60
2023-03-05T09:04:42.822Z,100939.00
2023-03-05T09:06:14.558Z,100939.20
2023-03-05T09:07:46.406Z,100936.40
2023-03-05T09:09:21.235Z,100939.20
2023-03-05T09:10:52.917Z,100936.20
2023-03-05T09:12:25.227Z,100937.40
2023-03-05T09:13:57.153Z,100935.40
2023-03-05T09:15:29.008Z,100937.40
2023-03-05T09:17:02.939Z,100933.40
2023-03-05T09:18:36.897Z,100934.40
2023-03-05T09:20:14.211Z,100933.80
2023-03-05T09:21:45.956Z,100934.80
2023-03-05T09:23:19.753Z,100932.60
2023-03-05T09:24:51.453Z,100932.80
2023-03-05T09:26:23.104Z,100929.80
2023-03-05T09:27:55.103Z,100927.00
2023-03-05T09:29:27.634Z,100924.60
2023-03-05T09:31:06.457Z,100926.60
2023-03-05T09:32:38.213Z,100923.20
2023-03-05T09:34:12.067Z,100924.40
2023-03-05T09:35:43.997Z,100922.20
2023-03-05T09:37:15.739Z,100922.60
2023-03-05T09:38:47.601Z,100920.00
2023-03-05T09:40:21.981Z,100916.20
2023-03-05T09:42:27.386Z,100915.60
2023-03-05T09:44:11.851Z,100915.00
2023-03-05T09:46:14.949Z,100916.20
2023-03-05T09:48:04.792Z,100914.20
2023-03-05T09:49:48.523Z,100913.80
2023-03-05T09:51:29.373Z,100913.00
2023-03-05T09:53:31.942Z,100908.60
2023-03-05T09:55:13.535Z,100906.40
2023-03-05T09:56:53.253Z,100906.80
2023-03-05T09:58:36.328Z,100913.80
2023-03-05T10:00:38.747Z,100908.20
2023-03-05T10:02:24.500Z,100906.60
2023-03-05T10:04:13.747Z,100901.80
2023-03-05T10:05:58.613Z,100904.60
2023-03-05T10:07:36.662Z,100905.80
2023-03-05T10:09:23.764Z,100897.40
2023-03-05T10:10:55.734Z,100892.80
2023-03-05T10:12:50.539Z,100890.80
2023-03-05T10:14:28.262Z,100887.60
2023-03-05T10:16:54.153Z,100885.40
2023-03-05T10:18:41.025Z,100886.80
2023-03-05T10:20:49.492Z,100885.60
2023-03-05T10:22:28.687Z,100878.00
2023-03-05T10:24:25.725Z,100878.40
2023-03-05T10:26:15.211Z,100873.60
2023-03-05T10:27:50.843Z,100874.20
2023-03-05T10:30:05.941Z,100873.60
2023-03-05T10:31:52.583Z,100866.20
2023-03-05T10:33:57.070Z,100857.80
2023-03-05T10:35:47.216Z,100862.80
2023-03-05T10:37:42.620Z,100858.60
2023-03-05T10:39:57.420Z,100864.80
2023-03-05T10:41:53.234Z,100864.00
2023-03-05T10:43:54.301Z,100859.40
2023-03-05T10:45:35.676Z,100852.80
2023-03-05T10:47:24.184Z,100852.00
2023-03-05T10:49:06.367Z,100846.00
2023-03-05T10:50:45.268Z,100845.20
2023-03-05T10:52:36.757Z,100848.80
2023-03-05T10:54:33.802Z,100841.40
2023-03-05T10:56:06.867Z,100842.80
2023-03-05T10:57:39.388Z,100844.80
2023-03-05T10:59:11.127Z,100843.60
2023-03-05T11:01:06.495Z,100840.40
2023-03-05T11:03:00.460Z,100838.80
2023-03-05T11:04:37.741Z,100837.20
2023-03-05T11:06:13.582Z,100830.80
2023-03-05T11:07:45.396Z,100833.60
2023-03-05T11:09:32.104Z,100827.80
2023-03-05T11:11:10.106Z,100827.40
2023-03-05T11:12:42.836Z,100825.80
2023-03-05T11:14:31.282Z,100828.60
2023-03-05T11:16:19.964Z,100824.40
2023-03-05T11:18:21.279Z,100819.00
2023-03-05T11:19:53.063Z,100817.20
2023-03-05T11:21:27.866Z,100816.20
2023-03-05T11:23:13.579Z,100815.60
2023-03-05T11:25:02.639Z,100816.40
2023-03-05T11:26:34.541Z,100810.80
2023-03-05T11:28:06.333Z,100811.40
2023-03-05T11:29:49.301Z,100813.60
2023-03-05T11:31:25.820Z,100807.60
2023-03-05T11:33:20.441Z,100805.80
2023-03-05T11:34:54.352Z,100805.40
2023-03-05T11:36:33.596Z,100806.20
2023-03-05T11:38:17.127Z,100804.80
2023-03-05T11:40:20.513Z,100801.60
2023-03-05T11:42:04.020Z,100799.40
2023-03-05T11:43:38.653Z,100799.80
2023-03-05T11:45:19.244Z,100802.40
2023-03-05T11:47:13.484Z,100799.60
2023-03-05T11:48:47.007Z,100791.20
2023-03-05T11:50:32.721Z,100783.00
2023-03-05T11:52:18.182Z,100782.80
2023-03-05T11:53:56.776Z,100790.40
2023-03-05T11:55:45.679Z,100792.40
2023-03-05T11:57:19.114Z,100781.20
2023-03-05T11:59:22.412Z,100784.60
2023-03-05T12:00:55.286Z,100783.40
2023-03-05T12:02:28.189Z,100781.40
2023-03-05T12:04:01.011Z,100774.60
2023-03-05T12:05:35.310Z,100772.40
2023-03-05T12:07:15.306Z,100770.40
2023-03-05T12:08:55.191Z,100763.40
2023-03-05T12:10:27.065Z,100764.60
2023-03-05T12:12:18.562Z,100764.80
2023-03-05T12:14:01.479Z,100757.80
2023-03-05T12:15:49.584Z,100755.80
2023-03-05T12:17:39.931Z,100754.40
2023-03-05T12:19:43.605Z,100749.40
2023-03-05T12:21:34.022Z,100744.00
2023-03-05T12:23:05.845Z,100741.00
2023-03-05T12:24:39.577Z,100737.80
2023-03-05T12:26:11.411Z,100736.80
2023-03-05T12:27:43.640Z,100733.60
2023-03-05T12:29:27.598Z,100734.60
2023-03-05T12:31:08.094Z,100732.80
2023-03-05T12:32:45.724Z,100730.00
2023-03-05T12:34:40.913Z,100728.00
2023-03-05T12:36:21.535Z,100724.20
2023-03-05T12:37:53.267Z,100718.60
2023-03-05T12:39:49.724Z,100717.80
2023-03-05T12:41:26.247Z,100709.00
2023-03-05T12:43:03.154Z,100710.00
2023-03-05T12:44:35.598Z,100715.40
2023-03-05T12:46:29.038Z,100707.80
2023-03-05T12:48:00.832Z,100704.80
2023-03-05T12:49:40.508Z,100709.80
2023-03-05T12:51:13.822Z,100699.20
2023-03-05T12:52:46.471Z,100691.00
2023-03-05T12:54:34.584Z,100687.80
2023-03-05T12:56:21.932Z,100686.20
2023-03-05T12:58:04.146Z,100683.60
2023-03-05T12:59:54.818Z,100677.20
2023-03-05T13:01:40.673Z,100675.00
2023-03-05T13:03:26.718Z,100676.20
2023-03-05T13:05:14.668Z,100672.00
2023-03-05T13:06:46.908Z,100669.80
2023-03-05T13:08:24.411Z,100665.60
2023-03-05T13:09:59.756Z,100666.40
2023-03-05T13:11:36.438Z,100660.60
2023-03-05T13:13:16.095Z,100655.60
2023-03-05T13:14:56.216Z,100655.40
2023-03-05T13:16:36.941Z,100657.80
2023-03-05T13:18:26.997Z,100651.60
2023-03-05T13:20:01.334Z,100651.00
2023-03-05T13:21:35.284Z,100645.20
2023-03-05T13:23:28.195Z,100646.00
2023-03-05T13:25:20.481Z,100644.20
2023-03-05T13:26:52.403Z,100637.40
2023-03-05T13:28:25.979Z,100637.40
2023-03-05T13:29:58.001Z,100632.00
2023-03-05T13:31:30.825Z,100635.60
2023-03-05T13:33:06.332Z,100631.40
2023-03-05T13:34:47.081Z,100632.00
2023-03-05T13:36:21.289Z,100628.80
2023-03-05T13:37:53.040Z,100619.80
2023-03-05T13:39:47.533Z,100616.80
2023-03-05T13:41:26.465Z,100615.60
2023-03-05T13:43:16.958Z,100609.60
2023-03-05T13:45:06.392Z,100612.40
2023-03-05T13:46:39.900Z,100609.80
2023-03-05T13:48:20.124Z,100606.00
2023-03-05T13:50:05.831Z,100601.80
2023-03-05T13:53:34.985Z,100598.00
2023-03-05T13:55:16.920Z,100595.80
2023-03-05T13:56:50.070Z,100596.00
2023-03-05T13:58:48.211Z,100591.80
2023-03-05T14:00:36.825Z,100586.20
2023-03-05T14:02:20.747Z,100588.80
2023-03-05T14:03:57.351Z,100583.20
2023-03-05T14:05:31.321Z,100583.60
2023-03-05T14:07:07.143Z,100578.20
2023-03-05T14:08:40.024Z,100577.20
2023-03-05T14:10:38.211Z,100566.60
2023-03-05T14:12:42.570Z,100564.80
2023-03-05T14:14:18.972Z,100562.20
2023-03-05T14:16:24.058Z,100562.00
2023-03-05T14:18:28.512Z,100560.00
2023-03-05T14:20:28.815Z,100557.20
2023-03-05T14:22:02.187Z,100550.20
2023-03-05T14:23:47.741Z,100552.00
2023-03-05T14:25:30.118Z,100548.80
2023-03-05T14:27:13.202Z,100547.00
2023-03-05T14:29:00.311Z,100548.20
2023-03-05T14:30:36.112Z,100538.20
2023-03-05T14:32:21.550Z,100539.40
2023-03-05T14:33:59.370Z,100546.00
2023-03-05T14:35:31.588Z,100539.40
2023-03-05T14:37:35.840Z,100534.80
2023-03-05T14:39:08.591Z,100536.20
2023-03-05T14:40:40.434Z,100535.20
2023-03-05T14:42:28.348Z,100528.80
2023-03-05T14:44:00.230Z,100530.60
2023-03-05T14:45:39.534Z,100528.40
2023-03-05T14:47:11.431Z,100527.60
2023-03-05T14:48:43.209Z,100523.00
2023-03-05T14:50:27.480Z,100518.00
2023-03-05T14:51:59.428Z,100514.80
2023-03-05T14:53:47.413Z,100511.60
2023-03-05T14:55:24.639Z,100513.60
2023-03-05T14:56:56.379Z,100507.00
2023-03-05T14:58:32.362Z,100506.20
2023-03-05T15:00:04.931Z,100506.00
2023-03-05T15:01:36.988Z,100508.00
2023-03-05T15:03:17.354Z,100501.60
2023-03-05T15:04:49.277Z,100503.00
2023-03-05T15:06:43.304Z,100500.40
2023-03-05T15:08:22.146Z,100495.80
2023-03-05T15:09:54.097Z,100497.00
2023-03-05T15:11:26.134Z,100489.20
2023-03-05T15:12:57.946Z,100488.80
2023-03-05T15:14:29.604Z,100485.60
2023-03-05T15:16:02.503Z,100489.60
2023-03-05T15:17:44.240Z,100487.40
2023-03-05T15:19:16.131Z,100479.60
2023-03-05T15:20:48.985Z,100479.20
2023-03-05T15:22:20.813Z,100480.80
2023-03-05T15:23:52.581Z,100479.00
2023-03-05T15:25:26.910Z,100477.00
2023-03-05T15:26:58.851Z,100476.00
2023-03-05T15:28:30.574Z,100478.00
2023-03-05T15:30:02.676Z,100478.40
2023-03-05T15:31:38.752Z,100471.20
2023-03-05T15:33:15.433Z,100473.80
2023-03-05T15:34:47.587Z,100475.00
2023-03-05T15:36:19.354Z,100470.20
2023-03-05T15:37:52.332Z,100470.40
2023-03-05T15:39:25.339Z,100469.00
2023-03-05T15:40:57.451Z,100469.80
2023-03-05T15:42:29.984Z,100467.00
2023-03-05T15:44:01.716Z,100470.20
2023-03-05T15:45:33.782Z,100461.20
2023-03-05T15:47:07.027Z,100467.80
2023-03-05T15:48:38.774Z,100465.60
2023-03-05T15:50:11.540Z,100459.60
2023-03-05T15:51:43.306Z,100464.20
2023-03-05T15:53:16.441Z,100456.80
2023-03-05T15:54:48.227Z,100457.00
2023-03-05T15:56:20.414Z,100451.40
2023-03-05T15:57:53.793Z,100448.20
2023-03-05T15:59:26.701Z,100453.60
2023-03-05T16:00:59.681Z,100445.40
2023-03-05T16:02:31.396Z,100446.80
2023-03-05T16:04:05.389Z,100442.00
2023-03-05T16:05:38.792Z,100439.00
2023-03-05T16:07:13.028Z,100440.60
2023-03-05T16:08:45.032Z,100434.00
2023-03-05T16:10:22.822Z,100434.80
2023-03-05T16:11:55.221Z,100432.60
2023-03-05T16:13:29.784Z,100430.60
2023-03-05T16:15:02.841Z,100430.00
2023-03-05T16:16:36.407Z,100437.60
2023-03-05T16:18:15.508Z,100431.20
2023-03-05T16:19:53.123Z,100432.00
2023-03-05T16:21:25.098Z,100432.40
2023-03-05T16:22:56.887Z,100429.20
2023-03-05T16:24:28.791Z,100433.20
2023-03-05T16:26:00.574Z,100425.80
2023-03-05T16:27:32.462Z,100429.80
2023-03-05T16:29:05.293Z,100423.40
2023-03-05T16:30:38.025Z,100420.00
2023-03-05T16:32:09.878Z,100426.00
2023-03-05T16:33:41.693Z,100423.60
2023-03-05T16:35:14.042Z,100424.80
2023-03-05T16:36:52.911Z,100420.00
2023-03-05T16:38:24.823Z,100417.60
2023-03-05T16:40:02.039Z,100416.80
2023-03-05T16:41:33.774Z,100413.80
2023-03-05T16:43:05.697Z,100414.80
2023-03-05T16:44:37.397Z,100409.20
2023-03-05T16:46:09.148Z,100410.20
2023-03-05T16:47:41.183Z,100408.00
2023-03-05T16:49:12.957Z,100412.40
2023-03-05T16:50:44.722Z,100408.00
2023-03-05T16:52:19.698Z,100408.40
2023-03-05T16:53:55.005Z,100409.40
2023-03-05T16:55:27.439Z,100413.80
2023-03-05T16:58:39.281Z,100414.80
2023-03-05T17:00:12.845Z,100411.40
2023-03-05T17:01:44.827Z,100410.00
2023-03-05T17:03:16.588Z,100407.00
2023-03-05T17:04:49.470Z,100404.80
2023-03-05T17:06:27.584Z,100401.20
2023-03-05T17:08:02.165Z,100399.40
2023-03-05T17:09:34.961Z,100401.40
2023-03-05T17:11:06.771Z,100403.00
2023-03-05T17:12:39.364Z,100397.00
2023-03-05T17:14:12.040Z,100402.00
2023-03-05T17:17:20.373Z,100400.20
2023-03-05T17:18:52.096Z,100405.20
2023-03-05T17:20:23.957Z,100403.20
2023-03-05T17:21:55.699Z,100399.80
2023-03-05T17:23:27.499Z,100402.80
2023-03-05T17:24:59.175Z,100397.40
2023-03-05T17:26:35.774Z,100393.60
2023-03-05T17:28:07.506Z,100397.20
2023-03-05T17:29:39.225Z,100394.00
2023-03-05T17:31:12.618Z,100394.00
2023-03-05T17:32:44.510Z,100397.60
2023-03-05T17:34:16.807Z,100394.40
2023-03-05T17:35:50.176Z,100394.00
2023-03-05T17:37:23.135Z,100391.20
2023-03-05T17:38:55.099Z,100393.20
2023-03-05T17:40:28.171Z,100391.60
2023-03-05T17:42:01.129Z,100388.20
2023-03-05T17:43:32.953Z,100387.40
2023-03-05T17:45:07.054Z,100384.80
2023-03-05T17:46:38.800Z,100391.20
2023-03-05T17:48:12.111Z,100387.40
2023-03-05T17:49:43.838Z,100389.40
2023-03-05T17:51:16.814Z,100386.60
2023-03-05T17:52:48.594Z,100385.40
2023-03-05T17:54:20.387Z,100384.60
2023-03-05T17:55:52.646Z,100389.40
2023-03-05T17:57:24.590Z,100386.60
2023-03-05T17:58:56.814Z,100387.40
2023-03-05T18:00:31.322Z,100383.80
2023-03-05T18:02:03.084Z,100383.40
2023-03-05T18:03:36.220Z,100381.00
2023-03-05T18:05:08.988Z,100383.40
2023-03-05T18:06:41.296Z,100380.80
2023-03-05T18:08:13.329Z,100379.00
2023-03-05T18:09:45.116Z,100374.80
2023-03-05T18:11:17.537Z,100379.80
2023-03-05T18:12:50.125Z,100377.40
2023-03-05T18:14:22.048Z,100378.60
2023-03-05T18:15:53.952Z,100375.20
2023-03-05T18:17:25.847Z,100373.20
2023-03-05T18:18:57.553Z,100371.40